Time;durP1;ratioP1;P1;durP2;ratioP2;P2;SDS_P1;SDS_P2;PMS_P1;PMS_P2;Temp;Humidity;BMP_temperature;BMP_pressure;BME280_temperature;BME280_humidity;BME280_pressure;Samples;Min_cycle;Max_cycle;Signal;HPM_P1;HPM_P2
2022/05/29 00:00:47;;;;;;;6.57;1.70;;;12.60;95.60;;;;;;5033740;28;20397;-64
2022/05/29 00:03:13;;;;;;;7.43;1.50;;;12.60;95.80;;;;;;5033824;28;20133;-64
2022/05/29 00:05:40;;;;;;;7.13;1.37;;;12.50;95.80;;;;;;5033757;28;20309;-65
2022/05/29 00:08:09;;;;;;;5.57;1.20;;;12.50;96.00;;;;;;5033722;28;20033;-64
2022/05/29 00:10:38;;;;;;;5.80;1.40;;;12.50;96.10;;;;;;5033627;28;20025;-64
2022/05/29 00:13:04;;;;;;;4.97;1.35;;;12.50;96.10;;;;;;5033962;28;20076;-65
2022/05/29 00:15:30;;;;;;;6.00;1.60;;;12.40;96.20;;;;;;5033616;28;20029;-65
2022/05/29 00:17:56;;;;;;;5.77;1.33;;;12.40;96.40;;;;;;5033399;28;20401;-65
2022/05/29 00:20:22;;;;;;;8.43;1.60;;;12.40;96.50;;;;;;5033605;28;20038;-65
2022/05/29 00:22:48;;;;;;;6.90;1.40;;;12.40;96.60;;;;;;5033503;28;20041;-64
2022/05/29 00:25:15;;;;;;;5.17;1.37;;;12.30;96.70;;;;;;5033494;28;20436;-64
2022/05/29 00:27:40;;;;;;;7.23;1.50;;;12.30;96.90;;;;;;5032005;28;20075;-65
2022/05/29 00:30:09;;;;;;;11.07;1.87;;;12.30;97.10;;;;;;5032603;28;20108;-64
2022/05/29 00:32:35;;;;;;;8.52;1.73;;;12.20;97.20;;;;;;5033336;28;20037;-64
2022/05/29 00:35:01;;;;;;;4.70;2.20;;;12.20;97.30;;;;;;5033147;28;20061;-64
2022/05/29 00:37:32;;;;;;;7.63;1.73;;;12.20;97.50;;;;;;5033358;28;20060;-65
2022/05/29 00:39:58;;;;;;;7.80;1.50;;;12.20;97.60;;;;;;5033006;28;20628;-65
2022/05/29 00:42:25;;;;;;;7.47;1.70;;;12.20;97.60;;;;;;5033504;28;20116;-64
2022/05/29 00:44:51;;;;;;;7.63;1.90;;;12.20;97.70;;;;;;5033228;28;20025;-65
2022/05/29 00:47:23;;;;;;;6.43;1.63;;;12.20;97.90;;;;;;5032880;28;20025;-64
2022/05/29 00:49:50;;;;;;;7.50;1.80;;;12.10;97.90;;;;;;5031610;28;20477;-64
2022/05/29 00:52:23;;;;;;;7.00;1.80;;;12.10;98.10;;;;;;5033077;28;20041;-65
2022/05/29 00:54:56;;;;;;;9.10;1.60;;;12.10;98.20;;;;;;5032934;28;20029;-64
2022/05/29 00:57:45;;;;;;;6.80;1.73;;;12.10;98.20;;;;;;5032755;28;20033;-65
2022/05/29 01:00:20;;;;;;;5.57;1.60;;;12.10;98.30;;;;;;5032595;28;20393;-64
2022/05/29 01:02:49;;;;;;;7.23;1.60;;;12.10;98.40;;;;;;5032778;28;20524;-64
2022/05/29 01:05:17;;;;;;;6.80;1.80;;;12.10;98.50;;;;;;5032775;28;20022;-65
2022/05/29 01:07:48;;;;;;;6.83;1.63;;;12.10;98.50;;;;;;5032416;28;20037;-64
2022/05/29 01:10:14;;;;;;;7.03;1.67;;;12.10;98.60;;;;;;5032349;28;20268;-64
2022/05/29 01:13:07;;;;;;;5.90;1.33;;;12.00;98.60;;;;;;5032538;28;20072;-65
2022/05/29 01:16:11;;;;;;;7.93;1.83;;;12.00;98.70;;;;;;5032711;28;20629;-64
2022/05/29 01:19:15;;;;;;;8.50;2.00;;;12.00;98.60;;;;;;5031963;28;20045;-63
2022/05/29 01:22:08;;;;;;;6.57;1.47;;;12.00;98.80;;;;;;5032380;28;20060;-64
2022/05/29 01:25:03;;;;;;;4.70;1.70;;;11.90;98.90;;;;;;5032429;28;20092;-65
2022/05/29 01:27:32;;;;;;;4.60;1.60;;;11.90;99.10;;;;;;5032288;28;20025;-64
2022/05/29 01:30:20;;;;;;;6.30;1.77;;;11.90;99.20;;;;;;5032014;28;20034;-64
2022/05/29 01:33:01;;;;;;;9.07;1.90;;;11.90;99.30;;;;;;5032131;28;20033;-65
2022/05/29 01:35:43;;;;;;;5.40;1.73;;;11.90;99.30;;;;;;5032173;28;20029;-64
2022/05/29 01:38:22;;;;;;;6.77;1.73;;;11.80;99.40;;;;;;5032087;28;20104;-64
2022/05/29 01:41:06;;;;;;;11.18;2.03;;;11.90;99.60;;;;;;5032219;28;20033;-65
2022/05/29 01:43:44;;;;;;;6.90;2.00;;;11.80;99.70;;;;;;5031378;28;20034;-66
2022/05/29 01:46:41;;;;;;;10.47;2.00;;;11.70;99.80;;;;;;5031763;28;20490;-65
2022/05/29 01:49:28;;;;;;;8.23;1.83;;;11.70;99.90;;;;;;5019495;28;20046;-64
2022/05/29 01:51:59;;;;;;;8.30;1.80;;;11.80;99.90;;;;;;5031943;28;20026;-64
2022/05/29 01:54:32;;;;;;;7.50;2.10;;;11.80;99.90;;;;;;5031678;28;20053;-65
2022/05/29 01:57:12;;;;;;;8.40;2.07;;;11.70;99.90;;;;;;5031505;28;20033;-64
2022/05/29 02:00:05;;;;;;;7.43;3.10;;;11.80;99.90;;;;;;5031640;28;20220;-64
2022/05/29 02:02:41;;;;;;;7.97;2.20;;;11.80;99.90;;;;;;5032219;28;20504;-64
2022/05/29 02:05:11;;;;;;;10.23;2.57;;;11.70;99.90;;;;;;5031808;28;20429;-64
2022/05/29 02:07:47;;;;;;;7.00;2.77;;;11.70;99.90;;;;;;5031304;28;20475;-65
2022/05/29 02:10:20;;;;;;;10.13;2.40;;;11.70;99.90;;;;;;5030206;28;20029;-65
2022/05/29 02:13:25;;;;;;;12.70;2.80;;;11.70;99.90;;;;;;5031654;28;20033;-64
2022/05/29 02:16:07;;;;;;;11.47;2.47;;;11.60;99.90;;;;;;5031380;28;20063;-64
2022/05/29 02:18:41;;;;;;;10.83;3.03;;;11.70;99.90;;;;;;5031155;28;20052;-65
2022/05/29 02:21:34;;;;;;;8.07;2.53;;;11.70;99.90;;;;;;5031476;28;20033;-64
2022/05/29 02:24:06;;;;;;;5.77;2.20;;;11.70;99.90;;;;;;5031270;28;20045;-65
2022/05/29 02:26:36;;;;;;;9.07;2.40;;;11.60;99.90;;;;;;5031099;28;20053;-64
2022/05/29 02:29:11;;;;;;;8.43;2.40;;;11.70;99.90;;;;;;5031126;28;20067;-65
2022/05/29 02:31:49;;;;;;;6.73;2.30;;;11.60;99.90;;;;;;5031456;28;20036;-64
2022/05/29 02:34:14;;;;;;;8.17;2.07;;;11.60;99.90;;;;;;5031500;28;20075;-64
2022/05/29 02:36:49;;;;;;;6.63;2.50;;;11.60;99.90;;;;;;5030958;28;20038;-65
2022/05/29 02:39:53;;;;;;;9.40;2.20;;;11.60;99.90;;;;;;5031002;28;20074;-64
2022/05/29 02:42:37;;;;;;;8.37;2.43;;;11.60;99.90;;;;;;4969908;28;20074;-65
2022/05/29 02:45:08;;;;;;;8.73;3.57;;;11.60;99.90;;;;;;5027304;28;20410;-64
2022/05/29 02:47:41;;;;;;;8.43;2.77;;;11.60;99.90;;;;;;5030899;28;20036;-64
2022/05/29 02:50:09;;;;;;;7.73;2.73;;;11.50;99.90;;;;;;5030881;28;20036;-64
2022/05/29 02:52:35;;;;;;;9.45;2.97;;;11.50;99.90;;;;;;5030992;28;20045;-64
2022/05/29 02:55:01;;;;;;;9.27;2.40;;;11.50;99.90;;;;;;5037449;28;20382;-65
2022/05/29 02:57:27;;;;;;;6.77;2.33;;;11.50;99.90;;;;;;5037458;28;20041;-65
2022/05/29 03:00:02;;;;;;;7.17;2.50;;;11.40;99.90;;;;;;5037194;28;20489;-64
2022/05/29 03:02:46;;;;;;;10.47;3.60;;;11.50;99.90;;;;;;5037514;28;20033;-64
2022/05/29 03:05:35;;;;;;;6.67;2.93;;;11.50;99.90;;;;;;5037766;28;20116;-64
2022/05/29 03:08:26;;;;;;;9.53;2.67;;;11.50;99.90;;;;;;5037470;28;20057;-64
2022/05/29 03:11:03;;;;;;;8.37;2.60;;;11.50;99.90;;;;;;5037296;28;20033;-65
2022/05/29 03:13:31;;;;;;;8.37;2.43;;;11.50;99.90;;;;;;5037386;28;20500;-65
2022/05/29 03:16:09;;;;;;;8.30;2.45;;;11.50;99.90;;;;;;5037438;28;20041;-64
2022/05/29 03:18:58;;;;;;;7.97;2.50;;;11.60;99.90;;;;;;5037216;28;20040;-65
2022/05/29 03:21:49;;;;;;;8.15;3.00;;;11.50;99.90;;;;;;5037082;28;20088;-65
2022/05/29 03:24:30;;;;;;;8.07;2.57;;;11.60;99.90;;;;;;5036194;28;20512;-64
2022/05/29 03:27:28;;;;;;;8.00;2.90;;;11.60;99.90;;;;;;5037246;28;20090;-64
2022/05/29 03:30:12;;;;;;;10.40;2.63;;;11.60;99.90;;;;;;5037052;28;20021;-65
2022/05/29 03:32:38;;;;;;;10.43;3.20;;;11.50;99.90;;;;;;5036259;28;20033;-64
2022/05/29 03:35:36;;;;;;;8.17;3.30;;;11.50;99.90;;;;;;5037173;28;20049;-64
2022/05/29 03:38:04;;;;;;;7.77;3.20;;;11.40;99.90;;;;;;5025343;28;20386;-64
2022/05/29 03:40:32;;;;;;;6.30;2.83;;;11.30;99.90;;;;;;5037054;28;20036;-64
2022/05/29 03:42:58;;;;;;;8.20;3.40;;;11.30;99.90;;;;;;5037493;28;20632;-64
2022/05/29 03:45:25;;;;;;;8.10;2.87;;;11.30;99.90;;;;;;5037252;28;20032;-64
2022/05/29 03:47:51;;;;;;;8.10;2.70;;;11.20;99.90;;;;;;5036998;28;20105;-64
2022/05/29 03:50:20;;;;;;;10.40;3.00;;;11.20;99.90;;;;;;5037015;28;20025;-64
2022/05/29 03:52:47;;;;;;;9.60;2.60;;;11.20;99.90;;;;;;5037578;28;20104;-65
2022/05/29 03:55:14;;;;;;;6.90;2.53;;;11.20;99.90;;;;;;5037091;28;20033;-65
2022/05/29 03:57:40;;;;;;;10.00;2.83;;;11.20;99.90;;;;;;5036902;28;20201;-64
2022/05/29 04:00:11;;;;;;;9.90;3.70;;;11.20;99.90;;;;;;5036867;28;20029;-64
2022/05/29 04:02:40;;;;;;;9.60;3.20;;;11.30;99.90;;;;;;5037212;28;20386;-65
2022/05/29 04:05:13;;;;;;;8.40;2.70;;;11.20;99.90;;;;;;5035052;28;20053;-64
2022/05/29 04:13:10;;;;;;;4.83;2.60;;;11.30;99.90;;;;;;5033854;28;20030;-64
2022/05/29 04:15:41;;;;;;;7.30;2.97;;;11.30;99.90;;;;;;5033696;28;20053;-64
2022/05/29 04:18:07;;;;;;;9.00;2.87;;;11.30;99.90;;;;;;5033641;28;20028;-64
2022/05/29 04:20:34;;;;;;;6.33;2.73;;;11.30;99.90;;;;;;5033346;28;20029;-64
2022/05/29 04:23:00;;;;;;;6.47;2.60;;;11.40;99.90;;;;;;5033616;28;20021;-65
2022/05/29 04:25:26;;;;;;;5.20;2.33;;;11.50;99.90;;;;;;5033384;28;20026;-64
2022/05/29 04:27:52;;;;;;;6.90;2.53;;;11.50;99.90;;;;;;5033368;28;20018;-65
2022/05/29 04:30:18;;;;;;;6.40;3.00;;;11.50;99.90;;;;;;5033314;28;20161;-64
2022/05/29 04:32:59;;;;;;;9.67;3.13;;;11.60;99.90;;;;;;5033377;28;20112;-65
2022/05/29 04:35:27;;;;;;;8.43;3.30;;;11.60;99.90;;;;;;5033304;28;20029;-64
2022/05/29 04:37:53;;;;;;;7.73;3.37;;;11.60;99.90;;;;;;5033203;28;20029;-64
2022/05/29 04:40:19;;;;;;;7.73;3.30;;;11.60;99.90;;;;;;5032873;28;20041;-65
2022/05/29 04:42:45;;;;;;;10.37;3.20;;;11.70;99.90;;;;;;5033200;28;20025;-64
2022/05/29 04:45:11;;;;;;;10.00;2.83;;;11.70;99.90;;;;;;5033191;28;20057;-64
2022/05/29 04:47:37;;;;;;;8.43;3.13;;;11.70;99.90;;;;;;5032936;28;20485;-64
2022/05/29 04:50:03;;;;;;;9.57;3.30;;;11.70;99.90;;;;;;5033048;28;20112;-64
2022/05/29 04:52:29;;;;;;;8.47;3.40;;;11.70;99.90;;;;;;5031792;28;20041;-65
2022/05/29 04:57:30;;;;;;;8.83;3.20;;;11.80;99.90;;;;;;5010929;28;20506;-67
2022/05/29 04:59:57;;;;;;;7.10;3.00;;;11.80;99.90;;;;;;5012708;28;20037;-66
2022/05/29 05:02:24;;;;;;;8.17;2.90;;;11.80;99.90;;;;;;5013069;28;20092;-67
2022/05/29 05:04:50;;;;;;;8.10;2.70;;;11.80;99.90;;;;;;5013408;28;20421;-66
2022/05/29 05:07:16;;;;;;;9.90;3.23;;;11.90;99.90;;;;;;5012865;28;20109;-66
2022/05/29 05:09:42;;;;;;;12.33;3.00;;;11.80;99.90;;;;;;5012814;28;20121;-66
2022/05/29 05:12:09;;;;;;;7.33;3.13;;;11.80;99.90;;;;;;5012876;28;20406;-67
2022/05/29 05:14:35;;;;;;;8.90;3.23;;;11.80;99.90;;;;;;5012952;28;20402;-67
2022/05/29 05:17:02;;;;;;;7.87;2.70;;;11.80;99.90;;;;;;4994963;28;20038;-66
2022/05/29 05:19:28;;;;;;;8.00;3.00;;;11.80;99.90;;;;;;5012457;28;20709;-66
2022/05/29 05:21:54;;;;;;;7.83;2.90;;;11.80;99.90;;;;;;5012621;28;20105;-66
2022/05/29 05:24:21;;;;;;;9.60;3.10;;;11.70;99.90;;;;;;5012662;28;20033;-66
2022/05/29 05:26:47;;;;;;;7.43;3.30;;;11.70;99.90;;;;;;5012259;28;20030;-66
2022/05/29 05:29:14;;;;;;;7.83;4.13;;;11.80;99.90;;;;;;5012331;28;20040;-67
2022/05/29 05:31:40;;;;;;;11.37;4.60;;;11.80;99.90;;;;;;5012462;28;20053;-66
2022/05/29 05:34:06;;;;;;;9.10;4.33;;;11.80;99.90;;;;;;5012473;28;20084;-67
2022/05/29 05:36:32;;;;;;;9.90;4.00;;;11.80;99.90;;;;;;5012202;28;20034;-67
2022/05/29 05:38:59;;;;;;;10.30;3.93;;;11.80;99.90;;;;;;5012123;28;20064;-67
2022/05/29 05:41:25;;;;;;;10.40;4.63;;;11.80;99.90;;;;;;5012186;28;20026;-67
2022/05/29 05:43:51;;;;;;;10.93;4.20;;;11.90;99.90;;;;;;5012188;28;20026;-67
2022/05/29 05:46:18;;;;;;;16.33;5.57;;;11.80;99.90;;;;;;4994577;28;20667;-67
2022/05/29 05:48:45;;;;;;;8.10;3.77;;;11.80;99.90;;;;;;5012064;28;20102;-67
2022/05/29 05:51:12;;;;;;;10.37;3.93;;;11.90;99.90;;;;;;5012002;28;20038;-67
2022/05/29 05:53:40;;;;;;;12.50;3.97;;;11.90;99.90;;;;;;5011870;28;20026;-66
2022/05/29 05:56:08;;;;;;;19.57;7.17;;;11.90;99.90;;;;;;5011604;28;20514;-66
2022/05/29 05:58:34;;;;;;;19.73;6.40;;;12.00;99.90;;;;;;5011612;28;20038;-67
2022/05/29 06:01:05;;;;;;;16.40;6.20;;;12.00;99.90;;;;;;5011825;28;20558;-67
2022/05/29 06:03:31;;;;;;;14.57;5.60;;;12.00;99.90;;;;;;5011886;28;20030;-67
2022/05/29 06:05:58;;;;;;;19.23;7.87;;;12.00;99.90;;;;;;5011780;28;20037;-67
2022/05/29 06:08:24;;;;;;;18.67;6.73;;;12.00;99.90;;;;;;5011726;28;20037;-66
2022/05/29 06:10:50;;;;;;;15.40;6.23;;;12.00;99.90;;;;;;5011524;28;20050;-67
2022/05/29 06:13:16;;;;;;;18.47;6.27;;;12.00;99.90;;;;;;5011797;28;20033;-67
2022/05/29 06:15:46;;;;;;;17.13;5.23;;;12.00;99.90;;;;;;5011573;28;20026;-66
2022/05/29 06:18:13;;;;;;;13.73;4.67;;;12.00;99.90;;;;;;5011561;28;20084;-67
2022/05/29 06:20:39;;;;;;;15.50;5.90;;;12.00;99.90;;;;;;5011261;28;20026;-67
2022/05/29 06:23:05;;;;;;;16.53;5.27;;;12.00;99.90;;;;;;5011514;28;20026;-66
2022/05/29 06:25:31;;;;;;;11.40;4.83;;;12.10;99.90;;;;;;5011647;28;20026;-67
2022/05/29 06:27:58;;;;;;;12.10;5.47;;;12.00;99.90;;;;;;5010757;28;20030;-67
2022/05/29 06:30:25;;;;;;;11.43;5.00;;;12.10;99.90;;;;;;5011330;28;20038;-67
2022/05/29 06:32:51;;;;;;;15.03;5.60;;;12.10;99.90;;;;;;5011432;28;20299;-67
2022/05/29 06:35:17;;;;;;;11.10;5.10;;;12.00;99.90;;;;;;4993668;28;20084;-67
2022/05/29 06:37:43;;;;;;;11.57;5.63;;;12.10;99.90;;;;;;5011258;28;20040;-67
2022/05/29 06:40:12;;;;;;;13.67;5.10;;;12.20;99.90;;;;;;5011423;28;20042;-67
2022/05/29 06:42:38;;;;;;;10.50;4.90;;;12.20;99.90;;;;;;5011516;28;20580;-67
2022/05/29 06:45:06;;;;;;;11.17;4.43;;;12.20;99.90;;;;;;5011346;28;20087;-68
2022/05/29 06:47:33;;;;;;;12.40;4.77;;;12.20;99.90;;;;;;5011207;28;20362;-67
2022/05/29 06:50:00;;;;;;;11.67;4.90;;;12.20;99.90;;;;;;5011040;28;20034;-67
2022/05/29 06:52:29;;;;;;;10.70;5.70;;;12.20;99.90;;;;;;5011840;28;20026;-66
2022/05/29 06:54:56;;;;;;;12.67;5.63;;;12.20;99.90;;;;;;5011579;28;20045;-66
2022/05/29 06:57:36;;;;;;;10.67;5.20;;;12.20;99.90;;;;;;5011139;28;20030;-67
2022/05/29 07:08:35;;;;;;;11.70;6.43;;;12.20;99.90;;;;;;5011124;28;20052;-67
2022/05/29 07:11:24;;;;;;;9.65;6.40;;;12.30;99.90;;;;;;5011003;28;20022;-66
2022/05/29 07:13:50;;;;;;;11.98;5.55;;;12.30;99.90;;;;;;5011190;28;20117;-66
2022/05/29 07:16:16;;;;;;;10.63;5.23;;;12.40;99.90;;;;;;5011176;28;20038;-67
2022/05/29 07:18:43;;;;;;;13.07;7.00;;;12.50;99.90;;;;;;5010986;28;20072;-67
2022/05/29 07:21:09;;;;;;;16.63;6.73;;;12.50;99.90;;;;;;5010689;28;20073;-67
2022/05/29 07:23:36;;;;;;;14.47;7.97;;;12.50;99.90;;;;;;5011104;28;20033;-67
2022/05/29 07:26:03;;;;;;;10.50;6.63;;;12.50;99.90;;;;;;5010937;28;20041;-67
2022/05/29 07:28:29;;;;;;;12.47;4.63;;;12.60;99.90;;;;;;5011160;28;20026;-67
2022/05/29 07:30:56;;;;;;;8.90;4.13;;;12.50;99.90;;;;;;5010761;28;20026;-67
2022/05/29 07:33:23;;;;;;;10.30;4.20;;;12.50;99.90;;;;;;5011260;28;20041;-67
2022/05/29 07:35:49;;;;;;;10.73;4.53;;;12.50;99.90;;;;;;5010614;28;20026;-67
2022/05/29 07:38:15;;;;;;;10.03;4.23;;;12.50;99.90;;;;;;5010847;28;20045;-67
2022/05/29 07:40:41;;;;;;;10.87;4.63;;;12.50;99.90;;;;;;5011970;28;20442;-67
2022/05/29 07:43:19;;;;;;;11.43;4.73;;;12.50;99.90;;;;;;5014608;28;20021;-67
2022/05/29 07:45:52;;;;;;;13.27;4.90;;;12.50;99.90;;;;;;5014419;28;20037;-67
2022/05/29 07:48:19;;;;;;;12.53;5.20;;;12.50;99.90;;;;;;5014339;28;20438;-67
2022/05/29 07:50:45;;;;;;;11.50;4.83;;;12.60;99.90;;;;;;5014351;28;20053;-67
2022/05/29 07:53:12;;;;;;;13.70;5.57;;;12.70;99.90;;;;;;5014613;28;20068;-67
2022/05/29 07:55:38;;;;;;;13.38;5.50;;;12.70;99.90;;;;;;5014280;28;20702;-67
2022/05/29 07:58:06;;;;;;;10.07;4.57;;;12.70;99.90;;;;;;5014144;28;20041;-67
2022/05/29 08:00:33;;;;;;;10.20;4.33;;;12.70;99.90;;;;;;5014088;28;20036;-67
2022/05/29 08:02:59;;;;;;;9.03;4.10;;;12.70;99.90;;;;;;5013969;28;20072;-67
2022/05/29 08:05:26;;;;;;;11.77;5.00;;;12.80;99.90;;;;;;5014003;28;20489;-67
2022/05/29 08:07:52;;;;;;;10.23;4.43;;;12.80;99.90;;;;;;5013924;28;20033;-67
2022/05/29 08:10:21;;;;;;;12.10;4.37;;;13.00;99.90;;;;;;5013925;28;20230;-67
2022/05/29 08:12:48;;;;;;;10.40;3.43;;;13.10;99.90;;;;;;5013912;28;20522;-67
2022/05/29 08:15:14;;;;;;;9.90;3.35;;;13.20;99.90;;;;;;5013744;28;20365;-67
2022/05/29 08:17:40;;;;;;;9.10;3.20;;;13.30;99.90;;;;;;5013636;28;20048;-67
2022/05/29 08:20:08;;;;;;;11.37;3.00;;;13.40;99.90;;;;;;5013548;28;20038;-66
2022/05/29 08:22:34;;;;;;;6.60;2.55;;;13.50;99.90;;;;;;5013779;28;20128;-66
2022/05/29 08:30:48;;;;;;;8.70;2.90;;;13.70;99.90;;;;;;5013595;28;20034;-67
2022/05/29 08:33:17;;;;;;;9.45;2.80;;;13.80;99.90;;;;;;5013554;28;20402;-67
2022/05/29 08:35:47;;;;;;;7.63;2.67;;;13.70;99.90;;;;;;5013529;28;20037;-67
2022/05/29 08:38:15;;;;;;;7.55;2.75;;;13.60;99.90;;;;;;5013647;28;20049;-67
2022/05/29 08:40:47;;;;;;;10.70;2.33;;;13.50;99.90;;;;;;5013496;28;20435;-67
2022/05/29 08:43:28;;;;;;;6.80;2.13;;;13.50;99.90;;;;;;5013899;28;20037;-66
2022/05/29 08:45:54;;;;;;;7.47;1.73;;;13.40;99.90;;;;;;5013133;28;20402;-67
2022/05/29 08:48:25;;;;;;;5.72;1.40;;;13.30;99.90;;;;;;5013264;28;20026;-67
2022/05/29 08:51:33;;;;;;;15.55;3.40;;;13.30;99.90;;;;;;5012660;28;20053;-67
2022/05/29 08:54:12;;;;;;;8.55;3.17;;;13.20;99.90;;;;;;5012503;28;20478;-66
2022/05/29 08:57:03;;;;;;;7.18;2.92;;;13.30;99.90;;;;;;5012664;28;20521;-67
2022/05/29 08:59:49;;;;;;;10.32;3.15;;;13.40;99.90;;;;;;5013043;28;20394;-67
2022/05/29 09:02:37;;;;;;;8.68;3.08;;;13.40;99.90;;;;;;4995581;28;20049;-66
2022/05/29 09:05:13;;;;;;;6.40;2.30;;;13.50;99.90;;;;;;5012930;28;20066;-67
2022/05/29 09:08:03;;;;;;;9.00;3.40;;;13.60;99.90;;;;;;5012638;28;20034;-67
2022/05/29 09:10:40;;;;;;;10.00;3.17;;;13.70;99.90;;;;;;5012797;28;20088;-67
2022/05/29 09:13:37;;;;;;;8.43;3.03;;;13.70;99.90;;;;;;4995370;28;20041;-67
2022/05/29 09:16:19;;;;;;;10.23;4.32;;;13.80;99.90;;;;;;5012602;28;20462;-67
2022/05/29 09:19:16;;;;;;;9.68;3.70;;;13.90;99.90;;;;;;5012519;28;20038;-66
2022/05/29 09:22:16;;;;;;;9.27;3.28;;;13.90;99.90;;;;;;5012830;28;20034;-67
2022/05/29 09:24:50;;;;;;;7.22;2.17;;;14.00;99.90;;;;;;4982200;28;20061;-67
2022/05/29 09:27:17;;;;;;;8.23;2.50;;;14.10;99.90;;;;;;5012732;28;20439;-67
2022/05/29 09:29:43;;;;;;;7.57;2.25;;;14.10;99.90;;;;;;4994833;28;20479;-66
2022/05/29 09:32:21;;;;;;;10.02;2.30;;;14.20;99.90;;;;;;5012851;28;20042;-67
2022/05/29 09:34:56;;;;;;;9.88;2.83;;;14.30;99.90;;;;;;5012481;28;20124;-67
2022/05/29 09:37:41;;;;;;;8.48;2.10;;;14.30;99.90;;;;;;5012576;28;20550;-67
2022/05/29 09:40:18;;;;;;;8.55;2.15;;;14.20;99.90;;;;;;4994426;28;20026;-67
2022/05/29 09:42:44;;;;;;;8.75;2.20;;;14.10;99.90;;;;;;5012525;28;20398;-67
2022/05/29 09:45:32;;;;;;;12.10;3.30;;;14.00;99.90;;;;;;5012085;28;20037;-67
2022/05/29 09:50:48;;;;;;;7.20;2.20;;;13.90;99.90;;;;;;5011880;28;20052;-67
2022/05/29 09:53:19;;;;;;;7.50;2.47;;;13.80;99.90;;;;;;5012078;28;20040;-67
2022/05/29 09:56:04;;;;;;;5.93;1.50;;;13.60;99.90;;;;;;5012133;28;20237;-67
2022/05/29 09:58:45;;;;;;;5.50;1.60;;;13.30;99.90;;;;;;5012108;28;20034;-66
2022/05/29 10:01:11;;;;;;;5.30;1.70;;;13.10;99.90;;;;;;5011886;28;20037;-67
2022/05/29 10:03:57;;;;;;;6.57;1.60;;;12.90;99.90;;;;;;5011084;28;20561;-66
2022/05/29 10:06:42;;;;;;;3.50;1.05;;;12.90;99.90;;;;;;5011208;28;20043;-66
2022/05/29 10:09:12;;;;;;;2.27;1.00;;;12.80;99.90;;;;;;5011904;28;20267;-66
2022/05/29 10:11:40;;;;;;;3.27;1.03;;;12.90;99.90;;;;;;5011820;28;20033;-66
2022/05/29 10:14:40;;;;;;;3.53;1.23;;;12.90;99.90;;;;;;4994001;28;20511;-67
2022/05/29 10:17:12;;;;;;;8.23;2.10;;;13.00;99.90;;;;;;5011610;28;20531;-67
2022/05/29 10:19:41;;;;;;;5.77;2.27;;;13.10;99.90;;;;;;5011572;28;20096;-67
2022/05/29 10:22:30;;;;;;;;;;;13.10;99.90;;;;;;5011976;28;20081;-66
2022/05/29 10:24:57;;;;;;;5.38;1.85;;;13.20;99.90;;;;;;5006048;28;19913;-67
2022/05/29 10:27:35;;;;;;;6.30;1.88;;;13.30;99.90;;;;;;5011181;28;20033;-67
2022/05/29 10:30:04;;;;;;;4.43;1.50;;;13.30;99.90;;;;;;5011394;28;20108;-67
2022/05/29 10:32:35;;;;;;;5.22;1.90;;;13.40;99.90;;;;;;5011540;28;20026;-67
2022/05/29 10:35:41;;;;;;;4.53;1.47;;;13.40;99.90;;;;;;5011284;28;20029;-67
2022/05/29 10:38:19;;;;;;;4.83;1.63;;;13.50;99.90;;;;;;4931447;29;20039;-67
2022/05/29 10:40:49;;;;;;;4.80;1.58;;;13.50;99.90;;;;;;4931349;29;20047;-67
2022/05/29 10:43:51;;;;;;;6.38;1.80;;;13.50;99.90;;;;;;4978628;28;20200;-67
2022/05/29 10:46:20;;;;;;;4.63;1.30;;;13.70;99.90;;;;;;4969395;28;20081;-67
2022/05/29 10:49:02;;;;;;;6.50;1.63;;;13.80;99.90;;;;;;5011111;28;20034;-67
2022/05/29 10:51:53;;;;;;;4.05;1.70;;;13.90;99.90;;;;;;5011228;28;20030;-67
2022/05/29 10:54:30;;;;;;;6.70;1.48;;;13.90;99.90;;;;;;5011414;28;20594;-67
2022/05/29 10:57:31;;;;;;;4.03;1.80;;;14.00;99.90;;;;;;5037880;23;20049;-64
2022/05/29 11:00:28;;;;;;;4.30;1.30;;;14.10;99.90;;;;;;5031499;28;20029;-64
2022/05/29 11:03:18;;;;;;;4.38;1.40;;;14.20;99.90;;;;;;5031208;28;20025;-65
2022/05/29 11:06:16;;;;;;;4.82;1.30;;;14.20;99.90;;;;;;5030892;28;20489;-65
2022/05/29 11:08:54;;;;;;;4.47;1.38;;;14.30;99.90;;;;;;5030840;28;20550;-64
2022/05/29 11:11:49;;;;;;;3.28;1.10;;;14.30;99.90;;;;;;5031225;28;20026;-64
2022/05/29 11:14:36;;;;;;;3.90;1.27;;;14.30;99.90;;;;;;5031675;28;20025;-65
2022/05/29 11:17:15;;;;;;;3.92;1.48;;;14.20;99.90;;;;;;5034977;28;20362;-64
2022/05/29 11:19:56;;;;;;;3.38;1.17;;;14.20;99.90;;;;;;5034806;28;20107;-65
2022/05/29 11:22:43;;;;;;;3.42;1.20;;;14.30;99.90;;;;;;5034803;28;20513;-64
2022/05/29 11:25:18;;;;;;;3.55;1.17;;;14.40;99.90;;;;;;5034866;28;20396;-65
2022/05/29 11:28:23;;;;;;;6.38;2.30;;;14.50;99.90;;;;;;5034393;28;20026;-65
2022/05/29 11:31:30;;;;;;;8.43;3.53;;;14.60;99.90;;;;;;5022384;28;20042;-65
2022/05/29 11:33:59;;;;;;;5.35;2.17;;;14.60;99.90;;;;;;4985589;28;20045;-64
2022/05/29 11:36:38;;;;;;;3.85;1.38;;;14.60;99.90;;;;;;5034263;28;20040;-65
2022/05/29 11:39:15;;;;;;;;;;;14.70;99.90;;;;;;5034834;28;20112;-65
2022/05/29 11:42:05;;;;;;;5.63;1.30;;;14.80;99.90;;;;;;5034137;28;20417;-64
2022/05/29 11:44:55;;;;;;;5.18;1.50;;;14.80;99.90;;;;;;5034355;28;20536;-65
2022/05/29 11:53:28;;;;;;;5.85;2.05;;;14.90;99.30;;;;;;5034275;28;20098;-65
2022/05/29 11:55:58;;;;;;;5.70;1.90;;;14.90;99.50;;;;;;5033881;28;20026;-65
2022/05/29 11:58:27;;;;;;;4.43;1.30;;;14.90;99.20;;;;;;5033925;28;20056;-65
2022/05/29 12:00:57;;;;;;;4.88;2.20;;;15.00;99.70;;;;;;5033940;28;20171;-65
2022/05/29 12:03:31;;;;;;;7.53;3.80;;;15.00;99.10;;;;;;5034070;28;20032;-64
2022/05/29 12:06:22;;;;;;;15.27;6.15;;;14.90;98.80;;;;;;5033963;28;20021;-65
2022/05/29 12:09:12;;;;;;;5.88;2.60;;;15.00;99.10;;;;;;5033585;28;20113;-65
2022/05/29 12:12:08;;;;;;;6.32;2.38;;;15.10;99.50;;;;;;5033800;28;20053;-64
2022/05/29 12:14:56;;;;;;;9.27;2.58;;;15.20;98.80;;;;;;5033795;28;20025;-64
2022/05/29 12:17:29;;;;;;;5.85;2.15;;;15.40;99.30;;;;;;5033168;28;20033;-64
2022/05/29 12:20:06;;;;;;;6.53;2.55;;;15.40;98.10;;;;;;5033480;28;20021;-64
2022/05/29 12:22:48;;;;;;;5.57;1.63;;;15.50;98.10;;;;;;5033588;28;20030;-64
2022/05/29 12:25:22;;;;;;;2.88;1.08;;;15.50;97.20;;;;;;5033431;28;20393;-65
2022/05/29 12:27:49;;;;;;;5.85;1.60;;;15.50;96.20;;;;;;5032816;28;20129;-64
2022/05/29 12:30:36;;;;;;;5.75;1.30;;;15.50;96.50;;;;;;5033450;28;20037;-64
2022/05/29 12:33:13;;;;;;;6.53;1.77;;;15.40;96.10;;;;;;5033371;28;20112;-65
2022/05/29 12:35:55;;;;;;;3.17;1.10;;;15.50;96.60;;;;;;5033260;28;20030;-64
2022/05/29 12:38:57;;;;;;;5.95;1.65;;;15.40;95.50;;;;;;5033336;28;20037;-64
2022/05/29 12:41:41;;;;;;;5.40;1.30;;;15.50;96.20;;;;;;5030708;28;20446;-64
2022/05/29 12:44:31;;;;;;;5.78;1.80;;;15.50;95.70;;;;;;5033556;28;20360;-65
2022/05/29 12:47:45;;;;;;;5.38;1.73;;;15.60;95.40;;;;;;5033019;28;20044;-64
2022/05/29 12:50:16;;;;;;;5.95;1.40;;;15.70;95.40;;;;;;5019675;28;20030;-65
2022/05/29 12:52:54;;;;;;;5.80;1.50;;;15.80;95.70;;;;;;5033261;28;20394;-64
2022/05/29 12:55:34;;;;;;;4.15;1.20;;;15.80;95.90;;;;;;5032998;28;20022;-65
2022/05/29 12:58:29;;;;;;;4.90;1.70;;;15.80;96.60;;;;;;5032922;28;20126;-65
2022/05/29 13:01:28;;;;;;;2.97;1.10;;;15.60;97.20;;;;;;5032625;28;20033;-64
2022/05/29 13:04:10;;;;;;;4.00;1.10;;;15.40;97.10;;;;;;5032745;28;20048;-63
2022/05/29 13:07:00;;;;;;;2.63;0.85;;;15.10;96.20;;;;;;5032622;28;20041;-64
2022/05/29 13:09:35;;;;;;;4.80;1.00;;;15.00;96.40;;;;;;5032130;28;20036;-65
2022/05/29 13:12:13;;;;;;;7.25;1.63;;;15.00;97.40;;;;;;5032723;28;20033;-64
2022/05/29 13:14:50;;;;;;;7.13;1.20;;;14.90;97.30;;;;;;5032680;28;20033;-64
2022/05/29 13:17:26;;;;;;;8.82;1.88;;;14.90;97.00;;;;;;5032420;28;20038;-65
2022/05/29 13:20:18;;;;;;;5.20;1.30;;;15.00;97.00;;;;;;5032512;28;20029;-64
2022/05/29 13:22:58;;;;;;;5.20;1.10;;;15.10;96.40;;;;;;5032468;28;20030;-64
2022/05/29 13:25:51;;;;;;;3.78;1.15;;;15.20;96.10;;;;;;5032473;28;20379;-64
2022/05/29 13:28:43;;;;;;;4.53;1.00;;;15.20;96.10;;;;;;5032195;28;20493;-64
2022/05/29 13:31:13;;;;;;;4.18;1.30;;;15.30;96.90;;;;;;5032173;28;20087;-64
2022/05/29 13:33:54;;;;;;;5.18;2.10;;;15.40;96.90;;;;;;5032259;28;20033;-65
2022/05/29 13:36:44;;;;;;;2.42;1.30;;;15.40;96.70;;;;;;5032162;28;20201;-64
2022/05/29 13:39:30;;;;;;;4.55;1.92;;;15.50;96.40;;;;;;5031985;28;20029;-65
2022/05/29 13:42:10;;;;;;;6.65;2.22;;;15.50;95.80;;;;;;5032234;28;20474;-64
2022/05/29 13:44:40;;;;;;;4.95;2.30;;;15.50;95.30;;;;;;5032116;28;20462;-65
2022/05/29 13:47:18;;;;;;;9.82;2.15;;;15.60;95.00;;;;;;5032069;28;20108;-65
2022/05/29 13:49:51;;;;;;;5.95;2.15;;;15.70;95.00;;;;;;5031966;28;20036;-65
2022/05/29 13:52:28;;;;;;;2.75;1.17;;;15.70;94.90;;;;;;5031964;28;20648;-65
2022/05/29 13:55:13;;;;;;;4.50;1.00;;;15.70;94.50;;;;;;5031770;28;20032;-64
2022/05/29 14:03:58;;;;;;;8.30;2.10;;;15.70;95.20;;;;;;5031758;28;20079;-64